createdAt,value
2016-08-09T00:00:15.818Z,63.02
2016-08-09T00:01:15.834Z,63.11
2016-08-09T00:02:15.830Z,63.11
2016-08-09T00:03:15.845Z,62.82
2016-08-09T00:04:15.842Z,62.92
2016-08-09T00:05:15.845Z,62.82
2016-08-09T00:06:15.851Z,62.92
2016-08-09T00:07:16.049Z,63.02
2016-08-09T00:08:16.117Z,63.02
2016-08-09T00:09:16.065Z,62.82
2016-08-09T00:10:16.110Z,62.73
2016-08-09T00:11:16.422Z,62.92
2016-08-09T00:12:16.093Z,62.92
2016-08-09T00:13:16.070Z,63.02
2016-08-09T00:14:16.541Z,62.92
2016-08-09T00:15:16.083Z,62.82
2016-08-09T00:16:16.140Z,63.11
2016-08-09T00:17:15.933Z,62.73
2016-08-09T00:18:15.926Z,63.02
2016-08-09T00:19:15.927Z,62.82
2016-08-09T00:20:15.932Z,63.11
2016-08-09T00:21:15.938Z,62.92
2016-08-09T00:22:15.941Z,63.02
2016-08-09T00:23:15.948Z,62.73
2016-08-09T00:24:15.951Z,62.73
2016-08-09T00:25:15.965Z,62.82
2016-08-09T00:26:15.966Z,63.31
2016-08-09T00:27:15.972Z,62.82
2016-08-09T00:28:15.976Z,62.82
2016-08-09T00:29:15.981Z,63.02
2016-08-09T00:30:15.996Z,62.82
2016-08-09T00:31:15.991Z,63.11
2016-08-09T00:32:15.997Z,62.92
2016-08-09T00:33:16.002Z,62.92
2016-08-09T00:34:16.016Z,62.73
2016-08-09T00:35:16.015Z,62.82
2016-08-09T00:36:16.022Z,62.82
2016-08-09T00:37:16.034Z,62.92
2016-08-09T00:38:16.030Z,63.02
2016-08-09T00:39:16.042Z,62.82
2016-08-09T00:40:16.041Z,62.92
2016-08-09T00:41:16.050Z,62.82
2016-08-09T00:42:16.053Z,62.82
2016-08-09T00:43:16.066Z,62.82
2016-08-09T00:44:16.080Z,62.92
2016-08-09T00:45:16.092Z,62.82
2016-08-09T00:46:16.080Z,62.82
2016-08-09T00:47:16.084Z,62.73
2016-08-09T00:48:16.086Z,62.92
2016-08-09T00:49:16.094Z,62.92
2016-08-09T00:50:16.101Z,62.73
2016-08-09T00:51:16.105Z,63.11
2016-08-09T00:52:16.110Z,63.11
2016-08-09T00:53:16.122Z,62.82
2016-08-09T00:54:16.125Z,62.92
2016-08-09T00:55:16.128Z,63.02
2016-08-09T00:56:16.133Z,62.82
2016-08-09T00:57:16.138Z,62.82
2016-08-09T00:58:16.145Z,63.02
2016-08-09T00:59:16.149Z,62.73
2016-08-09T01:00:16.156Z,63.21
2016-08-09T01:01:16.161Z,62.82
2016-08-09T01:03:16.173Z,63.11
2016-08-09T01:04:16.178Z,62.82
2016-08-09T01:05:16.183Z,62.92
2016-08-09T01:06:16.190Z,62.82
2016-08-09T01:07:16.195Z,62.73
2016-08-09T01:08:16.200Z,62.92
2016-08-09T01:09:16.206Z,62.82
2016-08-09T01:10:16.212Z,63.21
2016-08-09T01:11:16.216Z,63.21
2016-08-09T01:12:16.224Z,63.11
2016-08-09T01:13:16.226Z,63.21
2016-08-09T01:14:16.232Z,62.92
2016-08-09T01:15:16.240Z,62.73
2016-08-09T01:16:16.243Z,62.92
2016-08-09T01:18:16.265Z,62.73
2016-08-09T01:19:16.265Z,63.21
2016-08-09T01:20:16.268Z,62.82
2016-08-09T01:21:16.273Z,63.21
2016-08-09T01:22:16.277Z,62.82
2016-08-09T01:23:16.284Z,62.82
2016-08-09T01:24:16.294Z,62.92
2016-08-09T01:25:16.297Z,62.73
2016-08-09T01:26:16.301Z,62.82
2016-08-09T01:27:16.306Z,62.73
2016-08-09T01:28:16.312Z,62.82
2016-08-09T01:29:16.318Z,62.82
2016-08-09T01:30:16.338Z,62.92
2016-08-09T01:31:16.329Z,63.02
2016-08-09T01:33:16.339Z,63.02
2016-08-09T01:34:16.345Z,63.21
2016-08-09T01:35:16.354Z,63.11
2016-08-09T01:36:16.356Z,62.92
2016-08-09T01:37:16.364Z,62.82
2016-08-09T01:38:16.367Z,62.92
2016-08-09T01:39:16.371Z,62.92
2016-08-09T01:40:16.379Z,62.82
2016-08-09T01:41:16.389Z,62.92
2016-08-09T01:42:16.391Z,62.92
2016-08-09T01:43:16.398Z,62.92
2016-08-09T01:44:16.402Z,62.82
2016-08-09T01:45:16.404Z,62.73
2016-08-09T01:46:16.460Z,63.02
2016-08-09T01:48:16.420Z,62.82
2016-08-09T01:49:16.430Z,63.02
2016-08-09T01:50:16.435Z,63.21
2016-08-09T01:51:16.440Z,63.02
2016-08-09T01:52:16.446Z,62.82
2016-08-09T01:53:16.450Z,62.73
2016-08-09T01:54:16.460Z,62.73
2016-08-09T01:55:16.458Z,62.82
2016-08-09T01:56:16.467Z,63.02
2016-08-09T01:57:16.479Z,62.82
2016-08-09T01:58:16.476Z,63.02
2016-08-09T01:59:16.484Z,62.73
2016-08-09T02:00:16.492Z,62.82
2016-08-09T02:01:16.493Z,63.11
2016-08-09T02:02:16.508Z,62.73
2016-08-09T02:03:16.506Z,62.73
2016-08-09T02:04:16.512Z,63.21
2016-08-09T02:05:16.516Z,62.73
2016-08-09T02:06:16.521Z,63.02
2016-08-09T02:07:16.531Z,63.02
2016-08-09T02:08:16.539Z,63.21
2016-08-09T02:09:16.539Z,62.82
2016-08-09T02:10:16.558Z,63.21
2016-08-09T02:11:16.564Z,62.73
2016-08-09T02:12:16.555Z,63.11
2016-08-09T02:13:16.564Z,63.11
2016-08-09T02:14:16.566Z,63.11
2016-08-09T02:15:16.574Z,63.02
2016-08-09T02:16:16.581Z,63.11
2016-08-09T02:17:16.584Z,62.82
2016-08-09T02:18:16.590Z,62.73
2016-08-09T02:19:16.593Z,63.02
2016-08-09T02:20:16.599Z,62.73
2016-08-09T02:21:16.607Z,63.11
2016-08-09T02:22:16.615Z,63.02
2016-08-09T02:23:16.623Z,63.11
2016-08-09T02:24:16.624Z,63.11
2016-08-09T02:25:16.631Z,63.11
2016-08-09T02:26:16.634Z,63.21
2016-08-09T02:27:16.650Z,63.31
2016-08-09T02:28:16.647Z,63.02
2016-08-09T02:29:16.658Z,63.21
2016-08-09T02:30:16.655Z,63.21
2016-08-09T02:31:16.661Z,63.21
2016-08-09T02:32:16.671Z,63.11
2016-08-09T02:33:16.677Z,63.21
2016-08-09T02:34:16.678Z,63.11
2016-08-09T02:35:16.683Z,63.11
2016-08-09T02:36:16.701Z,63.02
2016-08-09T02:37:16.699Z,63.11
2016-08-09T02:38:16.700Z,63.11
2016-08-09T02:39:16.714Z,62.73
2016-08-09T02:40:16.711Z,63.21
2016-08-09T02:41:16.718Z,63.11
2016-08-09T02:42:16.726Z,63.02
2016-08-09T02:43:16.732Z,63.21
2016-08-09T02:44:16.732Z,63.11
2016-08-09T02:45:16.744Z,63.11
2016-08-09T02:46:16.795Z,63.02
2016-08-09T02:47:16.748Z,63.11
2016-08-09T02:48:16.755Z,63.21
2016-08-09T02:49:16.762Z,63.11
2016-08-09T02:50:16.766Z,63.31
2016-08-09T02:51:16.776Z,63.11
2016-08-09T02:52:17.946Z,63.11
2016-08-09T02:53:16.783Z,63.21
2016-08-09T02:54:16.791Z,63.02
2016-08-09T02:55:16.797Z,63.02
2016-08-09T02:56:16.800Z,63.31
2016-08-09T02:57:16.806Z,63.11
2016-08-09T02:58:16.815Z,63.11
2016-08-09T02:59:16.818Z,63.11
2016-08-09T03:00:16.821Z,63.11
2016-08-09T03:01:16.827Z,63.11
2016-08-09T03:02:16.844Z,63.31
2016-08-09T03:03:16.839Z,63.11
2016-08-09T03:04:16.850Z,63.31
2016-08-09T03:05:16.851Z,63.21
2016-08-09T03:06:16.856Z,63.21
2016-08-09T03:07:16.862Z,63.21
2016-08-09T03:08:16.870Z,63.11
2016-08-09T03:09:16.876Z,63.11
2016-08-09T03:10:16.879Z,62.63
2016-08-09T03:11:16.884Z,63.21
2016-08-09T03:12:16.892Z,62.73
2016-08-09T03:13:16.896Z,63.11
2016-08-09T03:14:16.906Z,63.21
2016-08-09T03:15:16.907Z,63.21
2016-08-09T03:16:16.909Z,62.73
2016-08-09T03:17:16.916Z,63.21
2016-08-09T03:18:16.921Z,62.73
2016-08-09T03:19:16.927Z,63.02
2016-08-09T03:20:16.935Z,63.21
2016-08-09T03:21:16.941Z,62.73
2016-08-09T03:22:16.947Z,63.31
2016-08-09T03:23:16.949Z,63.21
2016-08-09T03:24:16.957Z,63.21
2016-08-09T03:25:16.959Z,63.11
2016-08-09T03:26:16.966Z,63.21
2016-08-09T03:27:16.972Z,63.21
2016-08-09T03:28:16.978Z,63.11
2016-08-09T03:29:16.983Z,63.21
2016-08-09T03:30:16.990Z,63.11
2016-08-09T03:31:16.995Z,63.31
2016-08-09T03:32:16.997Z,63.21
2016-08-09T03:33:17.005Z,63.11
2016-08-09T03:34:17.018Z,63.11
2016-08-09T03:35:17.017Z,62.73
2016-08-09T03:36:17.028Z,63.21
2016-08-09T03:37:17.024Z,63.21
2016-08-09T03:38:17.032Z,63.02
2016-08-09T03:39:17.047Z,63.31
2016-08-09T03:40:17.054Z,62.73
2016-08-09T03:41:17.059Z,63.31
2016-08-09T03:42:17.053Z,63.31
2016-08-09T03:43:17.060Z,63.31
2016-08-09T03:44:17.064Z,63.21
2016-08-09T03:45:17.073Z,63.21
2016-08-09T03:46:17.079Z,63.31
2016-08-09T03:47:17.090Z,63.21
2016-08-09T03:48:17.087Z,63.11
2016-08-09T03:49:17.094Z,62.73
2016-08-09T03:50:17.099Z,63.11
2016-08-09T03:51:17.105Z,62.73
2016-08-09T03:52:17.111Z,63.11
2016-08-09T03:53:17.115Z,63.31
2016-08-09T03:54:17.128Z,63.21
2016-08-09T03:55:17.141Z,63.31
2016-08-09T03:56:17.134Z,63.21
2016-08-09T03:57:17.136Z,63.21
2016-08-09T03:58:17.147Z,63.21
2016-08-09T03:59:17.148Z,62.92
2016-08-09T04:00:17.152Z,63.31
2016-08-09T04:01:17.162Z,63.31
2016-08-09T04:02:17.166Z,62.82
2016-08-09T04:03:17.178Z,62.73
2016-08-09T04:04:17.178Z,63.11
2016-08-09T04:05:17.187Z,62.82
2016-08-09T04:06:17.187Z,63.11
2016-08-09T04:07:17.196Z,62.73
2016-08-09T04:08:17.200Z,62.73
2016-08-09T04:09:17.204Z,62.44
2016-08-09T04:10:17.211Z,63.21
2016-08-09T04:11:17.215Z,62.73
2016-08-09T04:12:17.219Z,62.82
2016-08-09T04:13:17.233Z,62.82
2016-08-09T04:14:17.230Z,62.82
2016-08-09T04:15:17.242Z,62.63
2016-08-09T04:16:17.242Z,63.11
2016-08-09T04:17:17.247Z,62.73
2016-08-09T04:18:17.256Z,62.82
2016-08-09T04:19:17.270Z,62.82
2016-08-09T04:20:17.263Z,62.73
2016-08-09T04:21:17.271Z,63.11
2016-08-09T04:22:17.276Z,63.31
2016-08-09T04:23:17.283Z,63.21
2016-08-09T04:24:17.285Z,62.82
2016-08-09T04:25:17.293Z,62.92
2016-08-09T04:26:17.298Z,62.82
2016-08-09T04:27:17.302Z,62.82
2016-08-09T04:28:17.328Z,62.82
2016-08-09T04:29:17.315Z,63.21
2016-08-09T04:30:17.336Z,62.73
2016-08-09T04:31:17.326Z,62.82
2016-08-09T04:32:17.329Z,62.63
2016-08-09T04:33:17.334Z,62.73
2016-08-09T04:34:17.339Z,62.73
2016-08-09T04:35:17.348Z,62.82
2016-08-09T04:36:17.355Z,63.11
2016-08-09T04:37:17.359Z,62.63
2016-08-09T04:38:17.363Z,62.73
2016-08-09T04:39:17.369Z,63.11
2016-08-09T04:40:17.376Z,62.82
2016-08-09T04:41:17.378Z,62.82
2016-08-09T04:42:17.385Z,62.63
2016-08-09T04:43:17.391Z,63.11
2016-08-09T04:44:17.398Z,63.11
2016-08-09T04:45:17.401Z,63.21
2016-08-09T04:46:17.409Z,62.73
2016-08-09T04:47:17.414Z,63.21
2016-08-09T04:48:17.419Z,62.92
2016-08-09T04:49:17.424Z,62.73
2016-08-09T04:50:18.472Z,62.82
2016-08-09T04:51:17.433Z,62.73
2016-08-09T04:52:17.457Z,62.73
2016-08-09T04:53:17.447Z,62.82
2016-08-09T04:54:17.454Z,62.82
2016-08-09T04:55:17.475Z,62.63
2016-08-09T04:56:17.464Z,62.73
2016-08-09T04:57:17.467Z,63.21
2016-08-09T04:58:17.472Z,62.92
2016-08-09T04:59:17.482Z,62.82
2016-08-09T05:00:17.484Z,63.11
2016-08-09T05:01:17.489Z,62.82
2016-08-09T05:02:17.497Z,62.73
2016-08-09T05:03:17.499Z,62.82
2016-08-09T05:04:17.503Z,62.82
2016-08-09T05:05:17.518Z,62.82
2016-08-09T05:06:17.520Z,62.63
2016-08-09T05:07:17.521Z,62.82
2016-08-09T05:08:17.555Z,62.82
2016-08-09T05:09:17.533Z,62.73
2016-08-09T05:10:17.540Z,62.82
2016-08-09T05:11:17.544Z,62.34
2016-08-09T05:12:17.547Z,62.63
2016-08-09T05:13:17.554Z,62.44
2016-08-09T05:14:17.559Z,63.02
2016-08-09T05:15:17.568Z,62.34
2016-08-09T05:16:17.572Z,62.79
2016-08-09T05:17:17.577Z,62.53
2016-08-09T05:18:17.589Z,62.82
2016-08-09T05:19:17.596Z,62.44
2016-08-09T05:20:17.593Z,63.02
2016-08-09T05:21:17.598Z,63.02
2016-08-09T05:22:17.813Z,62.34
2016-08-09T05:23:17.609Z,62.6
2016-08-09T05:24:17.616Z,62.92
2016-08-09T05:25:17.627Z,62.82
2016-08-09T05:26:17.626Z,62.82
2016-08-09T05:27:17.890Z,62.21
2016-08-09T05:28:17.774Z,62.63
2016-08-09T05:29:17.642Z,62.63
2016-08-09T05:30:17.648Z,62.53
2016-08-09T05:31:17.750Z,62.34
2016-08-09T05:32:17.661Z,62.82
2016-08-09T05:33:17.666Z,62.34
2016-08-09T05:34:17.672Z,63.02
2016-08-09T05:35:17.674Z,62.5
2016-08-09T05:36:17.681Z,62.82
2016-08-09T05:37:18.717Z,62.44
2016-08-09T05:38:17.697Z,62.73
2016-08-09T05:39:17.699Z,62.82
2016-08-09T05:40:17.706Z,62.34
2016-08-09T05:41:17.712Z,62.44
2016-08-09T05:42:17.718Z,62.44
2016-08-09T05:43:17.720Z,62.44
2016-08-09T05:44:17.746Z,62.44
2016-08-09T05:45:17.732Z,62.34
2016-08-09T05:46:17.738Z,62.44
2016-08-09T05:47:17.743Z,62.34
2016-08-09T05:48:17.746Z,62.6
2016-08-09T05:49:17.759Z,62.34
2016-08-09T05:50:17.760Z,62.53
2016-08-09T05:51:18.563Z,62.24
2016-08-09T05:52:17.771Z,62.44
2016-08-09T05:53:17.774Z,63.11
2016-08-09T05:54:17.792Z,62.44
2016-08-09T05:55:17.785Z,62.63
2016-08-09T05:56:17.791Z,62.24
2016-08-09T05:57:18.039Z,62.4
2016-08-09T05:58:17.878Z,62.44
2016-08-09T05:59:17.885Z,62.73
2016-08-09T06:00:18.056Z,62.53
2016-08-09T06:01:18.064Z,62.34
2016-08-09T06:02:18.074Z,62.63
2016-08-09T06:04:18.947Z,62.24
2016-08-09T06:05:18.080Z,62.63
2016-08-09T06:06:18.903Z,62.53
2016-08-09T06:07:19.695Z,62.53
2016-08-09T06:08:17.869Z,62.44
2016-08-09T06:09:17.937Z,62.53
2016-08-09T06:10:17.956Z,62.53
2016-08-09T06:11:17.942Z,62.53
2016-08-09T06:12:17.948Z,62.34
2016-08-09T06:13:18.592Z,62.53
2016-08-09T06:14:19.470Z,62.34
2016-08-09T06:15:18.113Z,62.53
2016-08-09T06:16:20.010Z,62.44
2016-08-09T06:17:18.184Z,62.53
2016-08-09T06:19:35.754Z,62.34
2016-08-09T06:20:36.157Z,62.44
2016-08-09T06:21:35.843Z,62.24
2016-08-09T06:22:36.353Z,62.34
2016-08-09T06:23:34.826Z,62.15
2016-08-09T06:24:35.443Z,62.15
2016-08-09T06:25:36.204Z,62.24
2016-08-09T06:26:35.049Z,62.24
2016-08-09T06:27:35.594Z,62.34
2016-08-09T06:28:35.752Z,62.44
2016-08-09T06:29:35.395Z,62.34
2016-08-09T06:30:36.265Z,62.24
2016-08-09T06:31:34.941Z,62.34
2016-08-09T06:32:34.652Z,62.53
2016-08-09T06:33:34.656Z,62.24
2016-08-09T06:34:35.924Z,62.24
2016-08-09T06:35:35.226Z,62.24
2016-08-09T06:36:36.039Z,62.34
2016-08-09T06:37:34.711Z,62.24
2016-08-09T06:38:36.355Z,62.24
2016-08-09T06:39:34.689Z,62.24
2016-08-09T06:40:35.157Z,62.15
2016-08-09T06:41:34.677Z,62.24
2016-08-09T06:42:36.096Z,62.24
2016-08-09T06:43:35.932Z,62.53
2016-08-09T06:44:34.886Z,62.24
2016-08-09T06:45:36.647Z,62.34
2016-08-09T06:46:35.352Z,62.44
2016-08-09T06:47:37.724Z,62.53
2016-08-09T06:48:35.075Z,61.95
2016-08-09T06:49:36.598Z,62.34
2016-08-09T06:52:36.852Z,62.24
2016-08-09T06:53:36.733Z,62.34
2016-08-09T06:54:35.962Z,62.34
2016-08-09T06:55:34.810Z,62.15
2016-08-09T06:56:35.059Z,62.63
2016-08-09T06:57:35.034Z,62.34
2016-08-09T06:58:35.979Z,62.24
2016-08-09T06:59:36.399Z,62.24
2016-08-09T07:00:36.413Z,62.63
2016-08-09T07:01:35.255Z,62.44
2016-08-09T07:02:35.434Z,62.05
2016-08-09T07:03:36.051Z,62.24
2016-08-09T07:04:35.749Z,61.95
2016-08-09T07:05:36.018Z,61.95
2016-08-09T07:06:35.768Z,62.15
2016-08-09T07:07:34.959Z,62.05
2016-08-09T07:08:35.741Z,62.34
2016-08-09T07:09:36.420Z,62.15
2016-08-09T07:10:36.467Z,62.05
2016-08-09T07:11:37.514Z,62.15
2016-08-09T07:12:36.421Z,61.95
2016-08-09T07:13:36.420Z,62.15
2016-08-09T07:14:36.494Z,62.56
2016-08-09T07:16:53.327Z,62.08
2016-08-09T07:17:53.289Z,62.15
2016-08-09T07:18:59.546Z,62.18
2016-08-09T07:19:52.456Z,61.86
2016-08-09T07:20:52.176Z,62.24
2016-08-09T07:21:52.226Z,62.05
2016-08-09T07:22:52.241Z,62.27
2016-08-09T07:23:53.615Z,61.89
2016-08-09T07:24:52.246Z,61.86
2016-08-09T07:25:52.123Z,62.37
2016-08-09T07:26:52.658Z,61.79
2016-08-09T07:27:54.614Z,62.24
2016-08-09T07:28:53.130Z,62.08
2016-08-09T07:29:52.744Z,62.18
2016-08-09T07:30:52.152Z,62.18
2016-08-09T07:31:52.235Z,62.47
2016-08-09T07:32:52.188Z,61.98
2016-08-09T07:33:52.250Z,62.37
2016-08-09T07:34:52.187Z,62.08
2016-08-09T07:35:53.354Z,62.18
2016-08-09T07:36:52.185Z,61.98
2016-08-09T07:37:52.192Z,62.08
2016-08-09T07:38:52.204Z,62.08
2016-08-09T07:39:53.167Z,62.18
2016-08-09T07:40:53.196Z,62.18
2016-08-09T07:41:52.217Z,62.47
2016-08-09T07:42:52.220Z,62.56
2016-08-09T07:43:52.227Z,62.47
2016-08-09T07:44:52.233Z,62.66
2016-08-09T07:45:54.275Z,62.18
2016-08-09T07:46:52.345Z,62.47
2016-08-09T07:47:54.042Z,61.98
2016-08-09T07:48:52.259Z,62.08
2016-08-09T07:49:52.263Z,61.72
2016-08-09T07:50:52.269Z,61.92
2016-08-09T07:51:52.650Z,61.72
2016-08-09T07:52:52.294Z,61.82
2016-08-09T07:53:53.307Z,61.92
2016-08-09T07:54:52.294Z,61.82
2016-08-09T07:55:52.296Z,61.82
2016-08-09T07:56:52.302Z,61.82
2016-08-09T07:57:52.313Z,61.82
2016-08-09T07:58:52.363Z,61.72
2016-08-09T07:59:52.325Z,61.72
2016-08-09T08:00:52.340Z,61.63
2016-08-09T08:01:53.411Z,61.63
2016-08-09T08:02:52.340Z,61.92
2016-08-09T08:03:52.343Z,61.63
2016-08-09T08:04:52.351Z,61.53
2016-08-09T08:05:53.521Z,62.01
2016-08-09T08:06:52.364Z,61.43
2016-08-09T08:07:52.377Z,61.43
2016-08-09T08:08:53.467Z,61.63
2016-08-09T08:09:52.934Z,61.43
2016-08-09T08:10:52.725Z,61.63
2016-08-09T08:11:53.444Z,62.01
2016-08-09T08:12:53.840Z,61.63
2016-08-09T08:13:52.426Z,61.63
2016-08-09T08:14:52.416Z,61.72
2016-08-09T08:15:52.429Z,61.92
2016-08-09T08:16:52.426Z,61.72
2016-08-09T08:17:52.605Z,61.72
2016-08-09T08:18:52.436Z,61.72
2016-08-09T08:19:52.527Z,62.01
2016-08-09T08:20:52.697Z,61.82
2016-08-09T08:21:52.934Z,62.21
2016-08-09T08:22:53.603Z,61.82
2016-08-09T08:23:52.480Z,61.82
2016-08-09T08:24:52.472Z,61.82
2016-08-09T08:25:52.475Z,61.92
2016-08-09T08:26:52.483Z,61.92
2016-08-09T08:27:52.519Z,61.92
2016-08-09T08:28:52.493Z,62.11
2016-08-09T08:29:52.744Z,62.18
2016-08-09T08:30:52.506Z,61.79
2016-08-09T08:31:52.512Z,61.82
2016-08-09T08:32:52.518Z,61.89
2016-08-09T08:33:52.522Z,61.82
2016-08-09T08:34:52.548Z,61.6
2016-08-09T08:35:52.535Z,61.69
2016-08-09T08:36:52.612Z,61.69
2016-08-09T08:37:52.862Z,61.79
2016-08-09T08:38:52.550Z,61.6
2016-08-09T08:39:52.557Z,61.69
2016-08-09T08:40:52.581Z,61.82
2016-08-09T08:41:52.582Z,61.92
2016-08-09T08:42:52.576Z,62.08
2016-08-09T08:43:52.587Z,61.92
2016-08-09T08:44:52.596Z,61.98
2016-08-09T08:45:52.591Z,61.63
2016-08-09T08:46:52.648Z,61.92
2016-08-09T08:47:52.623Z,62.08
2016-08-09T08:48:52.610Z,62.47
2016-08-09T08:49:53.452Z,61.98
2016-08-09T08:50:52.626Z,62.08
2016-08-09T08:51:52.635Z,61.79
2016-08-09T08:52:54.262Z,62.08
2016-08-09T08:53:52.639Z,62.08
2016-08-09T08:54:52.645Z,62.08
2016-08-09T08:55:52.651Z,61.89
2016-08-09T08:56:52.659Z,61.89
2016-08-09T08:57:52.661Z,62.08
2016-08-09T08:58:54.240Z,62.66
2016-08-09T08:59:52.676Z,62.37
2016-08-09T09:00:52.683Z,62.47
2016-08-09T09:01:52.686Z,62.37
2016-08-09T09:02:54.254Z,62.47
2016-08-09T09:04:52.705Z,61.98
2016-08-09T09:05:52.709Z,61.89
2016-08-09T09:06:53.085Z,62.08
2016-08-09T09:07:54.339Z,62.08
2016-08-09T09:08:52.914Z,61.98
2016-08-09T09:09:53.794Z,61.98
2016-08-09T09:10:53.043Z,61.79
2016-08-09T09:11:52.987Z,61.98
2016-08-09T09:12:52.773Z,61.79
2016-08-09T09:13:52.758Z,61.6
2016-08-09T09:14:53.186Z,61.6
2016-08-09T09:15:52.980Z,61.89
2016-08-09T09:16:53.435Z,61.89
2016-08-09T09:17:53.007Z,61.79
2016-08-09T09:19:54.326Z,61.79
2016-08-09T09:20:53.915Z,62.76
2016-08-09T09:21:52.978Z,61.92
2016-08-09T09:22:52.812Z,61.79
2016-08-09T09:23:52.815Z,61.89
2016-08-09T09:24:52.827Z,61.89
2016-08-09T09:25:52.823Z,61.89
2016-08-09T09:26:52.833Z,61.89
2016-08-09T09:27:52.839Z,61.89
2016-08-09T09:28:52.851Z,61.79
2016-08-09T09:29:52.847Z,61.92
2016-08-09T09:30:53.047Z,61.89
2016-08-09T09:31:52.860Z,61.98
2016-08-09T09:32:52.867Z,61.79
2016-08-09T09:34:52.878Z,61.89
2016-08-09T09:35:53.839Z,61.89
2016-08-09T09:36:52.920Z,61.82
2016-08-09T09:37:52.895Z,61.89
2016-08-09T09:38:52.899Z,61.82
2016-08-09T09:39:52.905Z,61.69
2016-08-09T09:40:52.918Z,61.89
2016-08-09T09:41:52.919Z,61.79
2016-08-09T09:42:52.926Z,61.79
2016-08-09T09:43:52.934Z,61.79
2016-08-09T09:44:52.938Z,61.79
2016-08-09T09:45:52.944Z,61.79
2016-08-09T09:46:52.948Z,61.79
2016-08-09T09:47:52.952Z,61.79
2016-08-09T09:48:52.958Z,61.89
2016-08-09T09:49:52.963Z,61.89
2016-08-09T09:50:52.972Z,61.79
2016-08-09T09:51:52.974Z,61.89
2016-08-09T09:52:52.980Z,61.79
2016-08-09T09:53:52.987Z,61.79
2016-08-09T09:54:52.993Z,61.89
2016-08-09T09:55:53.002Z,61.82
2016-08-09T09:56:53.005Z,61.79
2016-08-09T09:57:53.128Z,61.79
2016-08-09T09:58:53.024Z,61.89
2016-08-09T09:59:53.023Z,61.79
2016-08-09T10:00:53.034Z,61.79
2016-08-09T10:01:53.049Z,61.89
2016-08-09T10:02:53.041Z,61.79
2016-08-09T10:03:53.045Z,61.89
2016-08-09T10:04:53.050Z,61.79
2016-08-09T10:05:53.057Z,62.08
2016-08-09T10:06:53.064Z,61.79
2016-08-09T10:07:53.073Z,61.89
2016-08-09T10:08:53.075Z,61.89
2016-08-09T10:09:53.079Z,61.89
2016-08-09T10:10:53.089Z,61.79
2016-08-09T10:11:54.117Z,61.79
2016-08-09T10:12:53.103Z,61.89
2016-08-09T10:13:53.104Z,61.79
2016-08-09T10:14:53.109Z,61.79
2016-08-09T10:15:53.112Z,61.79
2016-08-09T10:16:53.135Z,62.08
2016-08-09T10:17:53.131Z,61.79
2016-08-09T10:18:53.140Z,62.08
2016-08-09T10:19:53.146Z,61.79
2016-08-09T10:20:53.146Z,61.79
2016-08-09T10:21:53.216Z,61.89
2016-08-09T10:22:53.173Z,61.79
2016-08-09T10:23:53.165Z,61.79
2016-08-09T10:24:54.162Z,61.79
2016-08-09T10:25:53.172Z,62.08
2016-08-09T10:26:53.179Z,61.98
2016-08-09T10:27:53.189Z,61.79
2016-08-09T10:28:53.196Z,61.79
2016-08-09T10:29:53.195Z,61.79
2016-08-09T10:30:53.203Z,61.79
2016-08-09T10:31:53.209Z,61.79
2016-08-09T10:32:53.212Z,61.79
2016-08-09T10:33:53.220Z,61.98
2016-08-09T10:34:53.236Z,61.89
2016-08-09T10:35:53.234Z,61.69
2016-08-09T10:36:53.238Z,61.69
2016-08-09T10:37:53.242Z,61.69
2016-08-09T10:38:54.431Z,61.79
2016-08-09T10:39:55.231Z,61.98
2016-08-09T10:40:54.685Z,61.98
2016-08-09T10:41:54.065Z,61.79
2016-08-09T10:42:53.522Z,61.79
2016-08-09T10:43:53.538Z,61.79
2016-08-09T10:44:55.294Z,61.69
2016-08-09T10:45:54.694Z,61.98
2016-08-09T10:46:54.684Z,61.69
2016-08-09T10:47:54.739Z,61.79
2016-08-09T10:48:54.826Z,61.69
2016-08-09T10:49:54.411Z,61.98
2016-08-09T10:50:55.856Z,61.79
2016-08-09T10:51:55.347Z,61.69
2016-08-09T10:52:53.624Z,61.69
2016-08-09T10:53:54.562Z,61.89
2016-08-09T10:54:53.718Z,61.98
2016-08-09T10:55:54.969Z,61.79
2016-08-09T10:56:54.492Z,61.79
2016-08-09T10:57:55.459Z,61.79
2016-08-09T10:58:53.734Z,61.79
2016-08-09T10:59:55.212Z,61.79
2016-08-09T11:00:53.747Z,61.69
2016-08-09T11:01:54.001Z,61.6
2016-08-09T11:02:53.565Z,61.69
2016-08-09T11:03:53.625Z,61.69
2016-08-09T11:04:53.903Z,61.69
2016-08-09T11:05:54.903Z,61.6
2016-08-09T11:06:53.931Z,61.79
2016-08-09T11:07:53.504Z,61.6
2016-08-09T11:08:54.495Z,61.6
2016-08-09T11:09:53.987Z,61.79
2016-08-09T11:10:54.712Z,61.6
2016-08-09T11:11:53.440Z,61.6
2016-08-09T11:12:53.443Z,61.69
2016-08-09T11:13:53.452Z,61.89
2016-08-09T11:14:53.468Z,61.6
2016-08-09T11:15:53.461Z,61.98
2016-08-09T11:16:53.466Z,61.5
2016-08-09T11:17:53.474Z,61.98
2016-08-09T11:18:53.484Z,61.6
2016-08-09T11:19:53.485Z,61.89
2016-08-09T11:20:53.491Z,61.6
2016-08-09T11:21:53.498Z,61.89
2016-08-09T11:22:53.503Z,61.69
2016-08-09T11:23:53.509Z,61.89
2016-08-09T11:24:53.515Z,61.69
2016-08-09T11:25:53.523Z,61.98
2016-08-09T11:26:53.526Z,61.69
2016-08-09T11:27:53.532Z,61.6
2016-08-09T11:28:53.535Z,61.89
2016-08-09T11:29:53.560Z,61.5
2016-08-09T11:30:53.550Z,61.89
2016-08-09T11:31:53.555Z,61.6
2016-08-09T11:32:53.567Z,61.89
2016-08-09T11:33:53.567Z,61.6
2016-08-09T11:34:53.575Z,61.69
2016-08-09T11:35:53.578Z,61.6
2016-08-09T11:36:53.583Z,61.89
2016-08-09T11:37:53.590Z,61.6
2016-08-09T11:38:53.596Z,61.6
2016-08-09T11:39:53.603Z,61.6
2016-08-09T11:40:53.607Z,61.6
2016-08-09T11:41:53.615Z,61.4
2016-08-09T11:42:53.619Z,61.5
2016-08-09T11:43:53.624Z,62.08
2016-08-09T11:44:53.632Z,61.6
2016-08-09T11:45:53.635Z,61.69
2016-08-09T11:46:53.642Z,61.69
2016-08-09T11:47:53.648Z,61.4
2016-08-09T11:48:53.656Z,61.6
2016-08-09T11:49:53.657Z,61.98
2016-08-09T11:50:53.663Z,61.79
2016-08-09T11:51:53.919Z,61.6
2016-08-09T11:52:53.686Z,61.6
2016-08-09T11:53:53.682Z,61.89
2016-08-09T11:54:53.693Z,61.89
2016-08-09T11:55:53.699Z,61.6
2016-08-09T11:56:53.699Z,61.89
2016-08-09T11:57:53.968Z,61.69
2016-08-09T11:58:53.712Z,61.98
2016-08-09T11:59:53.716Z,61.89
2016-08-09T12:00:53.722Z,61.79
2016-08-09T12:01:53.729Z,61.89
2016-08-09T12:02:53.733Z,61.98
2016-08-09T12:03:53.761Z,61.98
2016-08-09T12:04:53.744Z,61.79
2016-08-09T12:05:53.766Z,61.79
2016-08-09T12:06:53.756Z,61.98
2016-08-09T12:07:53.764Z,61.89
2016-08-09T12:08:53.771Z,61.79
2016-08-09T12:09:53.776Z,61.98
2016-08-09T12:10:53.780Z,61.69
2016-08-09T12:11:53.787Z,61.69
2016-08-09T12:12:53.791Z,61.98
2016-08-09T12:13:53.797Z,61.79
2016-08-09T12:14:53.808Z,61.79
2016-08-09T12:15:53.807Z,61.79
2016-08-09T12:16:53.823Z,61.89
2016-08-09T12:17:53.823Z,61.89
2016-08-09T12:18:53.826Z,61.89
2016-08-09T12:19:53.837Z,61.98
2016-08-09T12:20:53.838Z,61.89
2016-08-09T12:21:53.863Z,61.98
2016-08-09T12:22:53.848Z,61.69
2016-08-09T12:23:53.855Z,61.89
2016-08-09T12:24:53.875Z,61.79
2016-08-09T12:25:53.867Z,61.98
2016-08-09T12:26:53.872Z,61.98
2016-08-09T12:27:53.879Z,61.89
2016-08-09T12:28:53.886Z,61.89
2016-08-09T12:29:53.889Z,61.98
2016-08-09T12:30:53.896Z,61.79
2016-08-09T12:31:53.902Z,61.6
2016-08-09T12:32:53.906Z,61.69
2016-08-09T12:33:53.915Z,61.98
2016-08-09T12:34:53.918Z,61.69
2016-08-09T12:35:53.929Z,61.6
2016-08-09T12:36:53.929Z,61.5
2016-08-09T12:37:53.937Z,61.6
2016-08-09T12:38:53.943Z,61.89
2016-08-09T12:39:53.947Z,61.6
2016-08-09T12:40:53.951Z,61.69
2016-08-09T12:41:53.965Z,61.6
2016-08-09T12:42:53.973Z,61.6
2016-08-09T12:43:53.971Z,61.4
2016-08-09T12:44:53.975Z,61.5
2016-08-09T12:45:53.983Z,61.69
2016-08-09T12:46:53.986Z,61.6
2016-08-09T12:47:54.123Z,61.4
2016-08-09T12:48:54.043Z,61.69
2016-08-09T12:49:54.005Z,61.6
2016-08-09T12:50:54.011Z,61.98
2016-08-09T12:51:54.017Z,61.98
2016-08-09T12:52:54.026Z,61.6
2016-08-09T12:53:54.028Z,61.69
2016-08-09T12:54:54.033Z,61.89
2016-08-09T12:55:54.038Z,61.89
2016-08-09T12:56:54.042Z,61.79
2016-08-09T12:57:54.049Z,61.69
2016-08-09T12:58:54.057Z,61.69
2016-08-09T12:59:54.059Z,61.69
2016-08-09T13:00:54.077Z,61.6
2016-08-09T13:01:54.074Z,61.6
2016-08-09T13:02:54.077Z,61.69
2016-08-09T13:03:54.084Z,61.89
2016-08-09T13:04:54.097Z,61.6
2016-08-09T13:05:54.096Z,61.69
2016-08-09T13:06:54.099Z,61.79